sensor_id;sensor_type;location;lat;lon;timestamp;P1;durP1;ratioP1;P2;durP2;ratioP2
39454;SDS011;25155;41.890;23.446;2022-07-29T00:01:47;7.15;;;6.15;;
39454;SDS011;25155;41.890;23.446;2022-07-29T00:04:15;8.55;;;6.55;;
39454;SDS011;25155;41.890;23.446;2022-07-29T00:06:44;8.48;;;7.40;;
39454;SDS011;25155;41.890;23.446;2022-07-29T00:09:11;12.80;;;9.45;;
39454;SDS011;25155;41.890;23.446;2022-07-29T00:11:39;9.57;;;8.20;;
39454;SDS011;25155;41.890;23.446;2022-07-29T00:14:06;7.60;;;6.78;;
39454;SDS011;25155;41.890;23.446;2022-07-29T00:16:35;8.90;;;8.00;;
39454;SDS011;25155;41.890;23.446;2022-07-29T00:19:02;7.97;;;7.18;;
39454;SDS011;25155;41.890;23.446;2022-07-29T00:21:30;8.77;;;7.68;;
39454;SDS011;25155;41.890;23.446;2022-07-29T00:23:59;7.20;;;6.50;;
39454;SDS011;25155;41.890;23.446;2022-07-29T00:26:27;6.15;;;5.50;;
39454;SDS011;25155;41.890;23.446;2022-07-29T00:28:58;5.22;;;4.50;;
39454;SDS011;25155;41.890;23.446;2022-07-29T00:31:26;8.35;;;5.63;;
39454;SDS011;25155;41.890;23.446;2022-07-29T00:33:53;6.63;;;5.93;;
39454;SDS011;25155;41.890;23.446;2022-07-29T00:36:21;9.82;;;8.75;;
39454;SDS011;25155;41.890;23.446;2022-07-29T00:38:48;9.90;;;8.90;;
39454;SDS011;25155;41.890;23.446;2022-07-29T00:41:18;8.68;;;7.72;;
39454;SDS011;25155;41.890;23.446;2022-07-29T00:43:46;7.32;;;6.63;;
39454;SDS011;25155;41.890;23.446;2022-07-29T00:46:13;5.97;;;5.30;;
39454;SDS011;25155;41.890;23.446;2022-07-29T00:48:41;10.27;;;8.50;;
39454;SDS011;25155;41.890;23.446;2022-07-29T00:51:10;7.75;;;6.78;;
39454;SDS011;25155;41.890;23.446;2022-07-29T00:53:39;7.78;;;5.68;;
39454;SDS011;25155;41.890;23.446;2022-07-29T00:56:06;6.20;;;5.15;;
39454;SDS011;25155;41.890;23.446;2022-07-29T00:58:35;8.40;;;7.60;;
39454;SDS011;25155;41.890;23.446;2022-07-29T01:01:03;6.75;;;5.93;;
39454;SDS011;25155;41.890;23.446;2022-07-29T01:03:30;5.47;;;4.72;;
39454;SDS011;25155;41.890;23.446;2022-07-29T01:05:58;5.65;;;4.35;;
39454;SDS011;25155;41.890;23.446;2022-07-29T01:08:26;4.95;;;4.38;;
39454;SDS011;25155;41.890;23.446;2022-07-29T01:10:54;4.75;;;4.10;;
39454;SDS011;25155;41.890;23.446;2022-07-29T01:13:22;5.50;;;4.05;;
39454;SDS011;25155;41.890;23.446;2022-07-29T01:15:54;5.13;;;4.55;;
39454;SDS011;25155;41.890;23.446;2022-07-29T01:18:28;8.25;;;7.20;;
39454;SDS011;25155;41.890;23.446;2022-07-29T01:21:09;7.20;;;5.93;;
39454;SDS011;25155;41.890;23.446;2022-07-29T01:26:57;6.57;;;5.85;;
39454;SDS011;25155;41.890;23.446;2022-07-29T01:29:33;6.00;;;5.07;;
39454;SDS011;25155;41.890;23.446;2022-07-29T01:32:06;6.10;;;5.43;;
39454;SDS011;25155;41.890;23.446;2022-07-29T01:34:38;6.70;;;5.80;;
39454;SDS011;25155;41.890;23.446;2022-07-29T01:37:12;8.63;;;7.72;;
39454;SDS011;25155;41.890;23.446;2022-07-29T01:39:46;8.30;;;6.90;;
39454;SDS011;25155;41.890;23.446;2022-07-29T01:42:19;9.20;;;7.18;;
39454;SDS011;25155;41.890;23.446;2022-07-29T01:44:55;8.82;;;7.13;;
39454;SDS011;25155;41.890;23.446;2022-07-29T01:47:30;7.90;;;6.82;;
39454;SDS011;25155;41.890;23.446;2022-07-29T01:50:05;7.80;;;6.05;;
39454;SDS011;25155;41.890;23.446;2022-07-29T01:52:38;6.53;;;5.57;;
39454;SDS011;25155;41.890;23.446;2022-07-29T01:55:12;8.57;;;7.68;;
39454;SDS011;25155;41.890;23.446;2022-07-29T01:57:44;9.05;;;8.15;;
39454;SDS011;25155;41.890;23.446;2022-07-29T02:00:16;8.48;;;7.30;;
39454;SDS011;25155;41.890;23.446;2022-07-29T02:02:47;8.80;;;7.75;;
39454;SDS011;25155;41.890;23.446;2022-07-29T02:05:18;8.65;;;7.75;;
39454;SDS011;25155;41.890;23.446;2022-07-29T02:07:48;7.13;;;6.35;;
39454;SDS011;25155;41.890;23.446;2022-07-29T02:10:18;6.85;;;5.68;;
39454;SDS011;25155;41.890;23.446;2022-07-29T02:12:49;6.03;;;5.20;;
39454;SDS011;25155;41.890;23.446;2022-07-29T02:15:19;5.90;;;4.78;;
39454;SDS011;25155;41.890;23.446;2022-07-29T02:17:49;4.95;;;4.28;;
39454;SDS011;25155;41.890;23.446;2022-07-29T02:20:21;5.10;;;4.28;;
39454;SDS011;25155;41.890;23.446;2022-07-29T02:22:50;5.20;;;4.50;;
39454;SDS011;25155;41.890;23.446;2022-07-29T02:25:18;5.05;;;4.18;;
39454;SDS011;25155;41.890;23.446;2022-07-29T02:27:48;7.70;;;6.28;;
39454;SDS011;25155;41.890;23.446;2022-07-29T02:30:19;6.05;;;4.85;;
39454;SDS011;25155;41.890;23.446;2022-07-29T02:32:48;5.75;;;4.85;;
39454;SDS011;25155;41.890;23.446;2022-07-29T02:35:17;8.35;;;7.50;;
39454;SDS011;25155;41.890;23.446;2022-07-29T02:37:46;7.40;;;6.68;;
39454;SDS011;25155;41.890;23.446;2022-07-29T02:40:36;7.80;;;7.00;;
39454;SDS011;25155;41.890;23.446;2022-07-29T02:43:06;7.93;;;6.47;;
39454;SDS011;25155;41.890;23.446;2022-07-29T02:45:37;5.72;;;5.10;;
39454;SDS011;25155;41.890;23.446;2022-07-29T02:48:06;7.13;;;6.22;;
39454;SDS011;25155;41.890;23.446;2022-07-29T02:50:41;7.45;;;6.65;;
39454;SDS011;25155;41.890;23.446;2022-07-29T02:53:16;7.32;;;6.38;;
39454;SDS011;25155;41.890;23.446;2022-07-29T02:55:48;12.10;;;10.20;;
39454;SDS011;25155;41.890;23.446;2022-07-29T02:58:24;8.32;;;7.00;;
39454;SDS011;25155;41.890;23.446;2022-07-29T03:00:58;7.15;;;5.88;;
39454;SDS011;25155;41.890;23.446;2022-07-29T03:03:29;6.13;;;5.25;;
39454;SDS011;25155;41.890;23.446;2022-07-29T03:06:01;5.55;;;4.60;;
39454;SDS011;25155;41.890;23.446;2022-07-29T03:08:29;8.32;;;7.30;;
39454;SDS011;25155;41.890;23.446;2022-07-29T03:10:58;7.45;;;6.38;;
39454;SDS011;25155;41.890;23.446;2022-07-29T03:13:28;6.05;;;5.40;;
39454;SDS011;25155;41.890;23.446;2022-07-29T03:15:58;6.60;;;5.95;;
39454;SDS011;25155;41.890;23.446;2022-07-29T03:18:27;6.88;;;6.18;;
39454;SDS011;25155;41.890;23.446;2022-07-29T03:20:55;8.02;;;7.22;;
39454;SDS011;25155;41.890;23.446;2022-07-29T03:23:23;8.00;;;6.78;;
39454;SDS011;25155;41.890;23.446;2022-07-29T03:25:53;6.97;;;5.95;;
39454;SDS011;25155;41.890;23.446;2022-07-29T03:28:21;7.80;;;6.43;;
39454;SDS011;25155;41.890;23.446;2022-07-29T03:30:49;6.65;;;5.80;;
39454;SDS011;25155;41.890;23.446;2022-07-29T03:33:18;7.40;;;5.05;;
39454;SDS011;25155;41.890;23.446;2022-07-29T03:35:46;5.32;;;4.10;;
39454;SDS011;25155;41.890;23.446;2022-07-29T03:38:14;5.28;;;4.30;;
39454;SDS011;25155;41.890;23.446;2022-07-29T03:40:42;5.60;;;4.80;;
39454;SDS011;25155;41.890;23.446;2022-07-29T03:43:15;5.45;;;4.65;;
39454;SDS011;25155;41.890;23.446;2022-07-29T03:45:45;5.55;;;4.93;;
39454;SDS011;25155;41.890;23.446;2022-07-29T03:48:21;11.18;;;8.55;;
39454;SDS011;25155;41.890;23.446;2022-07-29T03:50:51;10.10;;;8.60;;
39454;SDS011;25155;41.890;23.446;2022-07-29T03:53:18;10.80;;;9.05;;
39454;SDS011;25155;41.890;23.446;2022-07-29T03:55:47;9.10;;;7.03;;
39454;SDS011;25155;41.890;23.446;2022-07-29T03:58:17;7.40;;;5.88;;
39454;SDS011;25155;41.890;23.446;2022-07-29T04:00:46;6.53;;;5.20;;
39454;SDS011;25155;41.890;23.446;2022-07-29T04:03:15;5.10;;;4.20;;
39454;SDS011;25155;41.890;23.446;2022-07-29T04:05:44;9.07;;;5.88;;
39454;SDS011;25155;41.890;23.446;2022-07-29T04:08:12;5.90;;;4.57;;
39454;SDS011;25155;41.890;23.446;2022-07-29T04:10:39;7.57;;;5.25;;
39454;SDS011;25155;41.890;23.446;2022-07-29T04:13:07;5.28;;;4.60;;
39454;SDS011;25155;41.890;23.446;2022-07-29T04:15:34;5.68;;;4.47;;
39454;SDS011;25155;41.890;23.446;2022-07-29T04:18:02;6.10;;;4.80;;
39454;SDS011;25155;41.890;23.446;2022-07-29T04:20:29;7.82;;;5.13;;
39454;SDS011;25155;41.890;23.446;2022-07-29T04:22:58;6.13;;;5.53;;
39454;SDS011;25155;41.890;23.446;2022-07-29T04:25:26;6.38;;;5.55;;
39454;SDS011;25155;41.890;23.446;2022-07-29T04:27:53;6.25;;;5.30;;
39454;SDS011;25155;41.890;23.446;2022-07-29T04:30:28;5.57;;;4.57;;
39454;SDS011;25155;41.890;23.446;2022-07-29T04:32:57;5.45;;;4.68;;
39454;SDS011;25155;41.890;23.446;2022-07-29T04:35:26;5.10;;;4.47;;
39454;SDS011;25155;41.890;23.446;2022-07-29T04:37:53;7.22;;;5.50;;
39454;SDS011;25155;41.890;23.446;2022-07-29T04:40:22;6.78;;;5.75;;
39454;SDS011;25155;41.890;23.446;2022-07-29T04:42:50;5.50;;;4.72;;
39454;SDS011;25155;41.890;23.446;2022-07-29T04:45:17;6.43;;;5.38;;
39454;SDS011;25155;41.890;23.446;2022-07-29T04:47:45;6.47;;;5.78;;
39454;SDS011;25155;41.890;23.446;2022-07-29T04:50:13;6.47;;;5.78;;
39454;SDS011;25155;41.890;23.446;2022-07-29T04:52:40;5.78;;;5.18;;
39454;SDS011;25155;41.890;23.446;2022-07-29T04:55:08;8.38;;;7.55;;
39454;SDS011;25155;41.890;23.446;2022-07-29T04:57:38;8.95;;;8.05;;
39454;SDS011;25155;41.890;23.446;2022-07-29T05:00:06;9.80;;;8.80;;
39454;SDS011;25155;41.890;23.446;2022-07-29T05:02:34;9.02;;;8.13;;
39454;SDS011;25155;41.890;23.446;2022-07-29T05:05:02;10.98;;;9.23;;
39454;SDS011;25155;41.890;23.446;2022-07-29T05:07:30;13.73;;;11.35;;
39454;SDS011;25155;41.890;23.446;2022-07-29T05:09:58;9.73;;;8.73;;
39454;SDS011;25155;41.890;23.446;2022-07-29T05:12:25;9.25;;;8.35;;
39454;SDS011;25155;41.890;23.446;2022-07-29T05:14:55;9.32;;;8.43;;
39454;SDS011;25155;41.890;23.446;2022-07-29T05:17:22;9.38;;;8.48;;
39454;SDS011;25155;41.890;23.446;2022-07-29T05:19:50;7.90;;;7.10;;
39454;SDS011;25155;41.890;23.446;2022-07-29T05:22:17;10.95;;;9.85;;
39454;SDS011;25155;41.890;23.446;2022-07-29T05:24:45;10.27;;;9.18;;
39454;SDS011;25155;41.890;23.446;2022-07-29T05:27:13;10.43;;;7.85;;
39454;SDS011;25155;41.890;23.446;2022-07-29T05:29:41;11.20;;;10.05;;
39454;SDS011;25155;41.890;23.446;2022-07-29T05:32:09;10.25;;;9.23;;
39454;SDS011;25155;41.890;23.446;2022-07-29T05:34:37;13.02;;;10.38;;
39454;SDS011;25155;41.890;23.446;2022-07-29T05:37:05;12.77;;;10.98;;
39454;SDS011;25155;41.890;23.446;2022-07-29T05:39:34;12.57;;;11.20;;
39454;SDS011;25155;41.890;23.446;2022-07-29T05:42:01;13.70;;;12.10;;
39454;SDS011;25155;41.890;23.446;2022-07-29T05:44:29;13.45;;;12.05;;
39454;SDS011;25155;41.890;23.446;2022-07-29T05:46:56;14.57;;;12.55;;
39454;SDS011;25155;41.890;23.446;2022-07-29T05:49:25;11.90;;;10.68;;
39454;SDS011;25155;41.890;23.446;2022-07-29T05:51:52;12.00;;;10.80;;
39454;SDS011;25155;41.890;23.446;2022-07-29T05:54:20;13.45;;;12.07;;
39454;SDS011;25155;41.890;23.446;2022-07-29T05:56:48;12.73;;;11.43;;
39454;SDS011;25155;41.890;23.446;2022-07-29T05:59:15;12.73;;;11.43;;
39454;SDS011;25155;41.890;23.446;2022-07-29T06:01:43;14.50;;;12.77;;
39454;SDS011;25155;41.890;23.446;2022-07-29T06:04:11;14.07;;;12.68;;
39454;SDS011;25155;41.890;23.446;2022-07-29T06:06:40;14.25;;;12.85;;
39454;SDS011;25155;41.890;23.446;2022-07-29T06:09:08;14.50;;;12.98;;
39454;SDS011;25155;41.890;23.446;2022-07-29T06:11:35;13.75;;;12.35;;
39454;SDS011;25155;41.890;23.446;2022-07-29T06:14:03;14.35;;;12.65;;
39454;SDS011;25155;41.890;23.446;2022-07-29T06:16:31;14.02;;;12.63;;
39454;SDS011;25155;41.890;23.446;2022-07-29T06:18:59;17.73;;;15.90;;
39454;SDS011;25155;41.890;23.446;2022-07-29T06:21:26;14.45;;;13.05;;
39454;SDS011;25155;41.890;23.446;2022-07-29T06:23:55;15.02;;;13.43;;
39454;SDS011;25155;41.890;23.446;2022-07-29T06:26:23;16.23;;;14.55;;
39454;SDS011;25155;41.890;23.446;2022-07-29T06:28:50;14.60;;;12.93;;
39454;SDS011;25155;41.890;23.446;2022-07-29T06:31:18;12.18;;;10.88;;
39454;SDS011;25155;41.890;23.446;2022-07-29T06:33:45;12.07;;;10.93;;
39454;SDS011;25155;41.890;23.446;2022-07-29T06:36:13;15.32;;;12.90;;
39454;SDS011;25155;41.890;23.446;2022-07-29T06:38:41;13.05;;;11.60;;
39454;SDS011;25155;41.890;23.446;2022-07-29T06:41:10;17.10;;;13.65;;
39454;SDS011;25155;41.890;23.446;2022-07-29T06:43:39;16.77;;;14.93;;
39454;SDS011;25155;41.890;23.446;2022-07-29T06:46:09;14.02;;;12.63;;
39454;SDS011;25155;41.890;23.446;2022-07-29T06:48:37;14.18;;;11.05;;
39454;SDS011;25155;41.890;23.446;2022-07-29T06:51:05;15.70;;;14.13;;
39454;SDS011;25155;41.890;23.446;2022-07-29T06:53:33;17.73;;;14.95;;
39454;SDS011;25155;41.890;23.446;2022-07-29T06:56:02;18.40;;;14.95;;
39454;SDS011;25155;41.890;23.446;2022-07-29T06:58:32;15.23;;;12.98;;
39454;SDS011;25155;41.890;23.446;2022-07-29T07:01:00;15.13;;;13.05;;
39454;SDS011;25155;41.890;23.446;2022-07-29T07:03:30;14.50;;;12.25;;
39454;SDS011;25155;41.890;23.446;2022-07-29T07:05:58;14.65;;;11.55;;
39454;SDS011;25155;41.890;23.446;2022-07-29T07:08:26;12.65;;;11.35;;
39454;SDS011;25155;41.890;23.446;2022-07-29T07:10:54;12.13;;;10.93;;
39454;SDS011;25155;41.890;23.446;2022-07-29T07:13:22;11.25;;;10.13;;
39454;SDS011;25155;41.890;23.446;2022-07-29T07:15:52;12.77;;;11.50;;
39454;SDS011;25155;41.890;23.446;2022-07-29T07:18:20;15.15;;;11.85;;
39454;SDS011;25155;41.890;23.446;2022-07-29T07:20:49;15.52;;;13.95;;
39454;SDS011;25155;41.890;23.446;2022-07-29T07:23:16;17.90;;;15.10;;
39454;SDS011;25155;41.890;23.446;2022-07-29T07:25:44;12.80;;;11.50;;
39454;SDS011;25155;41.890;23.446;2022-07-29T07:28:11;15.70;;;14.05;;
39454;SDS011;25155;41.890;23.446;2022-07-29T07:30:39;14.02;;;12.02;;
39454;SDS011;25155;41.890;23.446;2022-07-29T07:33:08;12.27;;;10.27;;
39454;SDS011;25155;41.890;23.446;2022-07-29T07:35:36;12.32;;;9.70;;
39454;SDS011;25155;41.890;23.446;2022-07-29T07:38:03;11.05;;;9.35;;
39454;SDS011;25155;41.890;23.446;2022-07-29T07:40:32;10.15;;;9.07;;
39454;SDS011;25155;41.890;23.446;2022-07-29T07:43:00;11.80;;;10.60;;
39454;SDS011;25155;41.890;23.446;2022-07-29T07:45:28;10.52;;;9.43;;
39454;SDS011;25155;41.890;23.446;2022-07-29T07:47:58;9.75;;;8.52;;
39454;SDS011;25155;41.890;23.446;2022-07-29T07:50:27;9.05;;;8.15;;
39454;SDS011;25155;41.890;23.446;2022-07-29T07:52:55;9.32;;;8.43;;
39454;SDS011;25155;41.890;23.446;2022-07-29T07:55:24;10.15;;;8.77;;
39454;SDS011;25155;41.890;23.446;2022-07-29T07:57:52;8.95;;;8.05;;
39454;SDS011;25155;41.890;23.446;2022-07-29T08:00:20;8.30;;;6.97;;
39454;SDS011;25155;41.890;23.446;2022-07-29T08:02:48;8.57;;;7.78;;
39454;SDS011;25155;41.890;23.446;2022-07-29T08:05:15;7.88;;;7.07;;
39454;SDS011;25155;41.890;23.446;2022-07-29T08:07:45;7.95;;;6.68;;
39454;SDS011;25155;41.890;23.446;2022-07-29T08:10:13;6.07;;;5.47;;
39454;SDS011;25155;41.890;23.446;2022-07-29T08:13:02;6.75;;;5.72;;
39454;SDS011;25155;41.890;23.446;2022-07-29T08:15:29;5.95;;;5.10;;
39454;SDS011;25155;41.890;23.446;2022-07-29T08:17:57;9.07;;;6.93;;
39454;SDS011;25155;41.890;23.446;2022-07-29T08:20:25;7.88;;;6.90;;
39454;SDS011;25155;41.890;23.446;2022-07-29T08:22:54;8.50;;;7.30;;
39454;SDS011;25155;41.890;23.446;2022-07-29T08:25:22;8.32;;;7.45;;
39454;SDS011;25155;41.890;23.446;2022-07-29T08:27:49;8.05;;;7.25;;
39454;SDS011;25155;41.890;23.446;2022-07-29T08:30:17;8.45;;;7.55;;
39454;SDS011;25155;41.890;23.446;2022-07-29T08:32:44;8.48;;;7.68;;
39454;SDS011;25155;41.890;23.446;2022-07-29T08:35:15;8.95;;;8.05;;
39454;SDS011;25155;41.890;23.446;2022-07-29T08:37:43;7.45;;;6.65;;
39454;SDS011;25155;41.890;23.446;2022-07-29T08:40:12;8.70;;;7.60;;
39454;SDS011;25155;41.890;23.446;2022-07-29T08:42:40;8.70;;;7.30;;
39454;SDS011;25155;41.890;23.446;2022-07-29T08:45:08;8.20;;;7.40;;
39454;SDS011;25155;41.890;23.446;2022-07-29T08:47:37;9.45;;;8.32;;
39454;SDS011;25155;41.890;23.446;2022-07-29T08:50:07;8.20;;;7.03;;
39454;SDS011;25155;41.890;23.446;2022-07-29T08:52:35;8.32;;;6.82;;
39454;SDS011;25155;41.890;23.446;2022-07-29T08:55:05;8.48;;;6.45;;
39454;SDS011;25155;41.890;23.446;2022-07-29T08:57:34;6.70;;;6.00;;
39454;SDS011;25155;41.890;23.446;2022-07-29T09:00:03;6.38;;;5.78;;
39454;SDS011;25155;41.890;23.446;2022-07-29T09:02:34;7.85;;;6.18;;
39454;SDS011;25155;41.890;23.446;2022-07-29T09:05:06;6.40;;;5.80;;
39454;SDS011;25155;41.890;23.446;2022-07-29T09:07:34;6.50;;;5.88;;
39454;SDS011;25155;41.890;23.446;2022-07-29T09:10:04;7.47;;;6.78;;
39454;SDS011;25155;41.890;23.446;2022-07-29T09:12:34;7.95;;;6.75;;
39454;SDS011;25155;41.890;23.446;2022-07-29T09:15:03;7.60;;;6.80;;
39454;SDS011;25155;41.890;23.446;2022-07-29T09:20:16;6.78;;;6.00;;
39454;SDS011;25155;41.890;23.446;2022-07-29T09:22:44;9.05;;;7.28;;
39454;SDS011;25155;41.890;23.446;2022-07-29T09:25:14;8.98;;;6.78;;
39454;SDS011;25155;41.890;23.446;2022-07-29T09:28:06;7.65;;;6.78;;
39454;SDS011;25155;41.890;23.446;2022-07-29T09:30:35;7.30;;;6.45;;
39454;SDS011;25155;41.890;23.446;2022-07-29T09:33:02;9.18;;;6.97;;
39454;SDS011;25155;41.890;23.446;2022-07-29T09:35:30;7.82;;;7.03;;
39454;SDS011;25155;41.890;23.446;2022-07-29T09:37:57;6.97;;;6.28;;
39454;SDS011;25155;41.890;23.446;2022-07-29T09:40:37;8.38;;;7.22;;
39454;SDS011;25155;41.890;23.446;2022-07-29T09:43:13;8.07;;;7.28;;
39454;SDS011;25155;41.890;23.446;2022-07-29T09:45:41;8.23;;;7.18;;
39454;SDS011;25155;41.890;23.446;2022-07-29T09:48:14;9.52;;;6.80;;
39454;SDS011;25155;41.890;23.446;2022-07-29T09:50:44;7.50;;;6.75;;
39454;SDS011;25155;41.890;23.446;2022-07-29T09:53:28;7.38;;;6.68;;
39454;SDS011;25155;41.890;23.446;2022-07-29T09:55:58;7.05;;;6.30;;
39454;SDS011;25155;41.890;23.446;2022-07-29T09:58:27;8.05;;;7.20;;
39454;SDS011;25155;41.890;23.446;2022-07-29T10:00:55;8.30;;;7.15;;
39454;SDS011;25155;41.890;23.446;2022-07-29T10:03:23;7.97;;;7.18;;
39454;SDS011;25155;41.890;23.446;2022-07-29T10:06:05;6.90;;;6.20;;
39454;SDS011;25155;41.890;23.446;2022-07-29T10:08:33;7.47;;;5.82;;
39454;SDS011;25155;41.890;23.446;2022-07-29T10:11:10;7.15;;;5.65;;
39454;SDS011;25155;41.890;23.446;2022-07-29T10:13:41;7.32;;;6.20;;
39454;SDS011;25155;41.890;23.446;2022-07-29T10:16:11;6.03;;;5.43;;
39454;SDS011;25155;41.890;23.446;2022-07-29T10:18:40;6.63;;;5.93;;
39454;SDS011;25155;41.890;23.446;2022-07-29T10:21:08;6.55;;;5.75;;
39454;SDS011;25155;41.890;23.446;2022-07-29T10:23:37;6.10;;;5.50;;
39454;SDS011;25155;41.890;23.446;2022-07-29T10:26:06;5.82;;;5.20;;
39454;SDS011;25155;41.890;23.446;2022-07-29T10:28:34;7.68;;;5.90;;
39454;SDS011;25155;41.890;23.446;2022-07-29T10:31:03;6.60;;;5.70;;
39454;SDS011;25155;41.890;23.446;2022-07-29T10:33:37;6.20;;;5.45;;
39454;SDS011;25155;41.890;23.446;2022-07-29T10:36:24;6.88;;;6.07;;
39454;SDS011;25155;41.890;23.446;2022-07-29T10:39:05;6.63;;;5.80;;
39454;SDS011;25155;41.890;23.446;2022-07-29T10:41:49;6.70;;;5.93;;
39454;SDS011;25155;41.890;23.446;2022-07-29T10:44:27;7.28;;;5.70;;
39454;SDS011;25155;41.890;23.446;2022-07-29T10:46:57;6.13;;;5.10;;
39454;SDS011;25155;41.890;23.446;2022-07-29T10:49:26;5.68;;;4.63;;
39454;SDS011;25155;41.890;23.446;2022-07-29T10:51:59;6.72;;;5.30;;
39454;SDS011;25155;41.890;23.446;2022-07-29T10:54:38;6.55;;;4.70;;
39454;SDS011;25155;41.890;23.446;2022-07-29T10:57:12;7.95;;;5.75;;
39454;SDS011;25155;41.890;23.446;2022-07-29T10:59:46;6.18;;;5.57;;
39454;SDS011;25155;41.890;23.446;2022-07-29T11:05:12;5.25;;;4.75;;
39454;SDS011;25155;41.890;23.446;2022-07-29T11:13:10;6.43;;;4.68;;
39454;SDS011;25155;41.890;23.446;2022-07-29T11:15:51;5.50;;;4.65;;
39454;SDS011;25155;41.890;23.446;2022-07-29T11:18:21;5.85;;;5.07;;
39454;SDS011;25155;41.890;23.446;2022-07-29T11:20:50;5.30;;;4.80;;
39454;SDS011;25155;41.890;23.446;2022-07-29T11:23:23;5.10;;;4.50;;
39454;SDS011;25155;41.890;23.446;2022-07-29T11:28:53;5.47;;;4.50;;
39454;SDS011;25155;41.890;23.446;2022-07-29T11:31:35;5.60;;;5.00;;
39454;SDS011;25155;41.890;23.446;2022-07-29T11:34:17;6.03;;;5.38;;
39454;SDS011;25155;41.890;23.446;2022-07-29T11:43:23;6.20;;;5.60;;
39454;SDS011;25155;41.890;23.446;2022-07-29T11:46:16;5.10;;;4.60;;
39454;SDS011;25155;41.890;23.446;2022-07-29T11:49:19;5.05;;;4.30;;
39454;SDS011;25155;41.890;23.446;2022-07-29T11:52:23;5.05;;;4.55;;
39454;SDS011;25155;41.890;23.446;2022-07-29T11:55:29;5.03;;;4.18;;
39454;SDS011;25155;41.890;23.446;2022-07-29T11:58:21;4.40;;;3.63;;
39454;SDS011;25155;41.890;23.446;2022-07-29T12:00:50;4.90;;;4.30;;
39454;SDS011;25155;41.890;23.446;2022-07-29T12:03:23;4.78;;;4.10;;
39454;SDS011;25155;41.890;23.446;2022-07-29T12:05:53;6.63;;;5.18;;
39454;SDS011;25155;41.890;23.446;2022-07-29T12:08:22;6.68;;;5.32;;
39454;SDS011;25155;41.890;23.446;2022-07-29T12:10:51;6.30;;;5.43;;
39454;SDS011;25155;41.890;23.446;2022-07-29T12:13:20;5.88;;;5.05;;
39454;SDS011;25155;41.890;23.446;2022-07-29T12:15:52;6.10;;;5.30;;
39454;SDS011;25155;41.890;23.446;2022-07-29T12:18:20;6.70;;;5.70;;
39454;SDS011;25155;41.890;23.446;2022-07-29T12:20:48;6.38;;;5.68;;
39454;SDS011;25155;41.890;23.446;2022-07-29T12:23:17;6.10;;;5.50;;
39454;SDS011;25155;41.890;23.446;2022-07-29T12:25:45;6.70;;;4.75;;
39454;SDS011;25155;41.890;23.446;2022-07-29T12:28:14;6.22;;;5.20;;
39454;SDS011;25155;41.890;23.446;2022-07-29T12:30:44;6.75;;;5.10;;
39454;SDS011;25155;41.890;23.446;2022-07-29T12:33:17;6.27;;;5.67;;
39454;SDS011;25155;41.890;23.446;2022-07-29T12:35:48;7.28;;;5.80;;
39454;SDS011;25155;41.890;23.446;2022-07-29T12:38:20;6.50;;;5.90;;
39454;SDS011;25155;41.890;23.446;2022-07-29T12:40:48;6.83;;;5.83;;
39454;SDS011;25155;41.890;23.446;2022-07-29T12:43:18;6.88;;;6.00;;
39454;SDS011;25155;41.890;23.446;2022-07-29T12:45:47;6.03;;;5.32;;
39454;SDS011;25155;41.890;23.446;2022-07-29T12:48:16;6.28;;;5.65;;
39454;SDS011;25155;41.890;23.446;2022-07-29T12:50:53;6.15;;;5.55;;
39454;SDS011;25155;41.890;23.446;2022-07-29T12:53:25;6.53;;;5.85;;
39454;SDS011;25155;41.890;23.446;2022-07-29T12:55:52;6.55;;;5.85;;
39454;SDS011;25155;41.890;23.446;2022-07-29T12:58:28;6.60;;;5.90;;
39454;SDS011;25155;41.890;23.446;2022-07-29T13:01:00;6.05;;;5.45;;
39454;SDS011;25155;41.890;23.446;2022-07-29T13:03:29;5.85;;;5.05;;
39454;SDS011;25155;41.890;23.446;2022-07-29T13:06:28;6.82;;;5.50;;
39454;SDS011;25155;41.890;23.446;2022-07-29T13:09:05;7.22;;;6.53;;
39454;SDS011;25155;41.890;23.446;2022-07-29T13:11:35;5.70;;;5.10;;
39454;SDS011;25155;41.890;23.446;2022-07-29T13:14:03;5.35;;;4.80;;
39454;SDS011;25155;41.890;23.446;2022-07-29T13:16:31;5.68;;;5.10;;
39454;SDS011;25155;41.890;23.446;2022-07-29T13:19:05;6.07;;;5.40;;
39454;SDS011;25155;41.890;23.446;2022-07-29T13:21:34;5.60;;;5.07;;
39454;SDS011;25155;41.890;23.446;2022-07-29T13:24:03;6.57;;;5.53;;
39454;SDS011;25155;41.890;23.446;2022-07-29T13:26:32;5.45;;;4.65;;
39454;SDS011;25155;41.890;23.446;2022-07-29T13:28:59;6.32;;;5.25;;
39454;SDS011;25155;41.890;23.446;2022-07-29T13:31:27;5.55;;;4.65;;
39454;SDS011;25155;41.890;23.446;2022-07-29T13:33:54;6.72;;;5.07;;
39454;SDS011;25155;41.890;23.446;2022-07-29T13:36:21;5.30;;;4.57;;
39454;SDS011;25155;41.890;23.446;2022-07-29T13:38:49;5.63;;;4.82;;
39454;SDS011;25155;41.890;23.446;2022-07-29T13:41:17;6.07;;;4.95;;
39454;SDS011;25155;41.890;23.446;2022-07-29T13:43:44;5.97;;;5.10;;
39454;SDS011;25155;41.890;23.446;2022-07-29T13:46:12;5.95;;;4.95;;
39454;SDS011;25155;41.890;23.446;2022-07-29T13:48:39;5.70;;;4.97;;
39454;SDS011;25155;41.890;23.446;2022-07-29T13:51:06;5.30;;;4.43;;
39454;SDS011;25155;41.890;23.446;2022-07-29T13:53:34;4.85;;;4.20;;
39454;SDS011;25155;41.890;23.446;2022-07-29T13:56:01;5.80;;;4.90;;
39454;SDS011;25155;41.890;23.446;2022-07-29T13:58:32;5.15;;;4.60;;
39454;SDS011;25155;41.890;23.446;2022-07-29T14:00:59;5.72;;;5.03;;
39454;SDS011;25155;41.890;23.446;2022-07-29T14:03:27;9.30;;;5.25;;
39454;SDS011;25155;41.890;23.446;2022-07-29T14:05:54;5.32;;;4.68;;
39454;SDS011;25155;41.890;23.446;2022-07-29T14:08:25;5.20;;;4.55;;
39454;SDS011;25155;41.890;23.446;2022-07-29T14:10:52;4.90;;;4.13;;
39454;SDS011;25155;41.890;23.446;2022-07-29T14:13:19;5.65;;;4.38;;
39454;SDS011;25155;41.890;23.446;2022-07-29T14:15:48;5.68;;;4.85;;
39454;SDS011;25155;41.890;23.446;2022-07-29T14:18:15;5.93;;;4.60;;
39454;SDS011;25155;41.890;23.446;2022-07-29T14:20:42;5.40;;;4.90;;
39454;SDS011;25155;41.890;23.446;2022-07-29T14:23:10;5.40;;;4.72;;
39454;SDS011;25155;41.890;23.446;2022-07-29T14:25:37;5.50;;;4.90;;
39454;SDS011;25155;41.890;23.446;2022-07-29T14:28:04;5.78;;;4.85;;
39454;SDS011;25155;41.890;23.446;2022-07-29T14:30:32;4.70;;;3.90;;
39454;SDS011;25155;41.890;23.446;2022-07-29T14:33:00;5.53;;;4.60;;
39454;SDS011;25155;41.890;23.446;2022-07-29T14:35:28;5.95;;;5.35;;
39454;SDS011;25155;41.890;23.446;2022-07-29T14:37:55;4.90;;;4.40;;
39454;SDS011;25155;41.890;23.446;2022-07-29T14:40:22;5.18;;;4.68;;
39454;SDS011;25155;41.890;23.446;2022-07-29T14:42:50;5.68;;;4.43;;
39454;SDS011;25155;41.890;23.446;2022-07-29T14:45:18;5.95;;;5.13;;
39454;SDS011;25155;41.890;23.446;2022-07-29T14:47:45;4.35;;;3.78;;
39454;SDS011;25155;41.890;23.446;2022-07-29T14:50:15;5.93;;;5.30;;
39454;SDS011;25155;41.890;23.446;2022-07-29T14:52:43;8.90;;;5.68;;
39454;SDS011;25155;41.890;23.446;2022-07-29T14:55:10;5.93;;;5.32;;
39454;SDS011;25155;41.890;23.446;2022-07-29T14:57:38;6.10;;;5.50;;
39454;SDS011;25155;41.890;23.446;2022-07-29T15:00:05;5.97;;;5.28;;
39454;SDS011;25155;41.890;23.446;2022-07-29T15:02:34;7.25;;;5.40;;
39454;SDS011;25155;41.890;23.446;2022-07-29T15:05:01;6.20;;;5.35;;
39454;SDS011;25155;41.890;23.446;2022-07-29T15:07:30;5.85;;;5.25;;
39454;SDS011;25155;41.890;23.446;2022-07-29T15:09:58;5.90;;;5.30;;
39454;SDS011;25155;41.890;23.446;2022-07-29T15:12:25;5.93;;;5.32;;